createdAt,value
2023-01-11T00:02:13.424Z,18.80
2023-01-11T00:04:40.909Z,19.77
2023-01-11T00:07:10.833Z,21.63
2023-01-11T00:09:38.309Z,19.75
2023-01-11T00:12:06.090Z,20.08
2023-01-11T00:14:33.553Z,18.92
2023-01-11T00:17:01.377Z,16.80
2023-01-11T00:19:28.788Z,18.55
2023-01-11T00:21:56.528Z,18.55
2023-01-11T00:24:23.949Z,15.98
2023-01-11T00:26:51.672Z,20.50
2023-01-11T00:29:19.096Z,17.00
2023-01-11T00:31:46.811Z,11.98
2023-01-11T00:34:14.242Z,16.80
2023-01-11T00:36:41.974Z,16.88
2023-01-11T00:39:09.437Z,15.32
2023-01-11T00:41:37.146Z,15.48
2023-01-11T00:44:04.910Z,16.52
2023-01-11T00:46:32.772Z,23.33
2023-01-11T00:49:00.192Z,18.55
2023-01-11T00:51:30.623Z,14.82
2023-01-11T00:53:59.905Z,14.60
2023-01-11T00:56:27.708Z,16.58
2023-01-11T00:58:55.268Z,14.38
2023-01-11T01:01:22.994Z,15.88
2023-01-11T01:03:50.381Z,10.65
2023-01-11T01:06:18.093Z,17.00
2023-01-11T01:08:45.514Z,15.70
2023-01-11T01:11:13.344Z,21.55
2023-01-11T01:13:40.812Z,13.25
2023-01-11T01:16:08.688Z,12.95
2023-01-11T01:18:36.089Z,10.07
2023-01-11T01:21:03.803Z,12.45
2023-01-11T01:23:31.185Z,13.93
2023-01-11T01:26:03.417Z,11.05
2023-01-11T01:42:57.300Z,16.42
2023-01-11T01:54:17.346Z,12.35
2023-01-11T01:56:48.064Z,11.15
2023-01-11T01:59:16.750Z,14.27
2023-01-11T02:01:45.257Z,18.75
2023-01-11T02:04:19.470Z,19.75
2023-01-11T02:06:47.604Z,22.73
2023-01-11T02:09:17.816Z,20.98
2023-01-11T02:11:45.532Z,18.30
2023-01-11T02:14:15.318Z,20.67
2023-01-11T02:16:43.046Z,18.50
2023-01-11T02:19:14.065Z,16.63
2023-01-11T02:21:47.491Z,13.57
2023-01-11T02:24:32.999Z,16.65
2023-01-11T02:27:11.127Z,16.38
2023-01-11T02:29:38.464Z,17.35
2023-01-11T02:32:15.036Z,13.80
2023-01-11T02:34:45.666Z,11.13
2023-01-11T02:37:16.484Z,9.25
2023-01-11T02:40:16.262Z,11.07
2023-01-11T02:42:50.069Z,10.52
2023-01-11T02:45:29.452Z,11.60
2023-01-11T02:48:15.863Z,16.10
2023-01-11T02:50:43.264Z,12.18
2023-01-11T02:53:13.946Z,13.65
2023-01-11T02:55:43.199Z,12.18
2023-01-11T02:58:11.876Z,13.48
2023-01-11T03:00:40.315Z,13.00
2023-01-11T03:03:18.626Z,16.48
2023-01-11T03:06:12.016Z,13.35
2023-01-11T03:08:51.882Z,14.07
2023-01-11T03:11:48.486Z,11.23
2023-01-11T03:14:19.014Z,12.52
2023-01-11T03:17:04.802Z,10.25
2023-01-11T03:19:39.554Z,12.82
2023-01-11T03:22:11.605Z,14.18
2023-01-11T03:27:06.329Z,13.45
2023-01-11T03:29:37.299Z,14.93
2023-01-11T03:32:11.056Z,21.25
2023-01-11T03:34:47.884Z,23.13
2023-01-11T03:37:15.197Z,21.85
2023-01-11T03:39:45.004Z,21.30
2023-01-11T03:42:13.967Z,18.90
2023-01-11T03:44:45.853Z,21.63
2023-01-11T03:47:14.950Z,19.90
2023-01-11T03:49:48.036Z,22.05
2023-01-11T03:52:16.522Z,19.08
2023-01-11T03:54:44.311Z,19.85
2023-01-11T03:57:33.965Z,17.92
2023-01-11T04:00:01.874Z,15.45
2023-01-11T04:02:46.756Z,20.42
2023-01-11T04:05:14.842Z,17.95
2023-01-11T04:07:42.176Z,21.30
2023-01-11T04:10:10.121Z,20.05
2023-01-11T04:12:37.516Z,19.00
2023-01-11T04:15:05.298Z,20.40
2023-01-11T04:17:32.636Z,19.50
2023-01-11T04:20:00.261Z,15.63
2023-01-11T04:22:27.689Z,18.85
2023-01-11T04:24:55.279Z,14.50
2023-01-11T04:27:22.581Z,12.70
2023-01-11T04:29:49.877Z,10.68
2023-01-11T04:32:17.544Z,13.10
2023-01-11T04:34:44.893Z,10.48
2023-01-11T04:37:12.578Z,12.32
2023-01-11T04:39:39.986Z,15.52
2023-01-11T04:42:07.629Z,10.90
2023-01-11T04:44:35.036Z,11.48
2023-01-11T04:47:02.628Z,12.40
2023-01-11T04:49:30.003Z,10.93
2023-01-11T04:51:57.718Z,12.77
2023-01-11T04:54:25.085Z,11.25
2023-01-11T04:56:52.812Z,9.18
2023-01-11T04:59:20.170Z,10.43
2023-01-11T05:01:47.839Z,9.82
2023-01-11T05:04:15.291Z,11.60
2023-01-11T05:06:42.995Z,8.65
2023-01-11T05:09:15.015Z,8.75
2023-01-11T05:14:09.851Z,12.25
2023-01-11T05:16:37.646Z,12.10
2023-01-11T05:19:05.473Z,11.10
2023-01-11T05:21:34.416Z,16.05
2023-01-11T05:24:03.458Z,14.10
2023-01-11T05:26:34.624Z,13.27
2023-01-11T05:29:03.619Z,13.15
2023-01-11T05:31:31.486Z,14.48
2023-01-11T05:33:59.315Z,10.80
2023-01-11T05:36:27.435Z,12.18
2023-01-11T05:38:55.482Z,15.23
2023-01-11T05:41:24.102Z,12.05
2023-01-11T05:43:51.821Z,12.57
2023-01-11T05:46:19.527Z,8.80
2023-01-11T05:48:46.849Z,9.23
2023-01-11T05:51:14.533Z,9.05
2023-01-11T05:53:42.053Z,7.30
2023-01-11T05:56:09.787Z,9.50
2023-01-11T05:58:37.217Z,8.48
2023-01-11T06:01:06.211Z,8.82
2023-01-11T06:03:33.723Z,8.65
2023-01-11T06:06:01.398Z,8.50
2023-01-11T06:08:28.857Z,12.90
2023-01-11T06:10:57.059Z,6.53
2023-01-11T06:13:25.083Z,7.78
2023-01-11T06:15:59.942Z,9.82
2023-01-11T06:18:28.043Z,7.13
2023-01-11T06:20:56.037Z,6.70
2023-01-11T06:23:23.667Z,7.25
2023-01-11T06:25:51.518Z,6.55
2023-01-11T06:28:19.063Z,4.78
2023-01-11T06:30:53.245Z,7.95
2023-01-11T06:33:21.354Z,5.22
2023-01-11T06:35:48.977Z,9.35
2023-01-11T06:38:17.175Z,6.35
2023-01-11T06:40:51.090Z,7.85
2023-01-11T06:43:18.577Z,5.10
2023-01-11T06:45:46.244Z,4.82
2023-01-11T06:48:13.601Z,5.55
2023-01-11T06:50:41.318Z,6.90
2023-01-11T06:53:09.228Z,7.70
2023-01-11T06:55:36.953Z,8.27
2023-01-11T06:58:04.288Z,7.35
2023-01-11T07:00:32.094Z,8.82
2023-01-11T07:06:11.951Z,8.50
2023-01-11T07:08:39.307Z,9.98
2023-01-11T07:11:07.016Z,7.00
2023-01-11T07:13:34.404Z,11.10
2023-01-11T07:16:02.177Z,9.77
2023-01-11T07:18:29.661Z,6.72
2023-01-11T07:20:57.304Z,7.90
2023-01-11T07:23:24.656Z,9.10
2023-01-11T07:25:52.343Z,5.22
2023-01-11T07:28:19.804Z,4.72
2023-01-11T07:30:58.223Z,4.63
2023-01-11T07:33:26.694Z,3.50
2023-01-11T07:35:54.777Z,3.95
2023-01-11T07:38:22.729Z,5.40
2023-01-11T07:40:50.419Z,5.50
2023-01-11T07:46:50.114Z,5.20
2023-01-11T07:49:17.920Z,4.53
2023-01-11T07:51:45.255Z,5.35
2023-01-11T07:54:13.015Z,8.48
2023-01-11T07:56:40.373Z,5.95
2023-01-11T07:59:08.603Z,15.13
2023-01-11T08:01:35.979Z,14.00
2023-01-11T08:04:03.758Z,12.65
2023-01-11T08:06:32.034Z,9.20
2023-01-11T08:09:02.547Z,10.80
2023-01-11T08:11:30.273Z,10.05
2023-01-11T08:13:57.890Z,10.70
2023-01-11T08:16:25.974Z,8.60
2023-01-11T08:18:53.800Z,6.35
2023-01-11T08:21:21.209Z,9.43
2023-01-11T08:23:48.964Z,4.93
2023-01-11T08:26:16.318Z,6.53
2023-01-11T08:28:44.228Z,7.28
2023-01-11T08:31:11.659Z,5.90
2023-01-11T08:33:39.327Z,8.98
2023-01-11T08:36:07.569Z,5.00
2023-01-11T08:38:35.755Z,5.82
2023-01-11T08:41:03.856Z,7.43
2023-01-11T08:43:31.585Z,7.10
2023-01-11T08:45:58.948Z,6.75
2023-01-11T08:48:26.576Z,4.75
2023-01-11T08:50:54.501Z,8.85
2023-01-11T08:53:22.211Z,7.43
2023-01-11T08:55:50.585Z,6.15
2023-01-11T08:58:20.637Z,6.28
2023-01-11T09:00:48.906Z,5.78
2023-01-11T09:03:16.579Z,5.75
2023-01-11T09:05:43.846Z,6.68
2023-01-11T09:08:11.647Z,5.70
2023-01-11T09:10:39.032Z,4.10
2023-01-11T09:13:06.708Z,6.38
2023-01-11T09:15:34.091Z,7.78
2023-01-11T09:18:01.719Z,8.10
2023-01-11T09:24:00.999Z,16.58
2023-01-11T09:26:29.174Z,7.45
2023-01-11T09:28:56.584Z,5.55
2023-01-11T09:31:24.617Z,4.55
2023-01-11T09:33:52.080Z,4.90
2023-01-11T09:36:19.803Z,6.10
2023-01-11T09:38:48.072Z,5.25
2023-01-11T09:41:28.197Z,8.02
2023-01-11T09:44:07.250Z,9.52
2023-01-11T09:46:35.999Z,8.82
2023-01-11T09:49:03.314Z,4.10
2023-01-11T09:51:33.804Z,7.22
2023-01-11T09:54:02.123Z,7.78
2023-01-11T09:56:38.892Z,8.32
2023-01-11T09:59:15.247Z,10.50
2023-01-11T10:02:05.971Z,11.45
2023-01-11T10:04:52.242Z,7.25
2023-01-11T10:07:41.377Z,11.38
2023-01-11T10:18:32.894Z,7.50
2023-01-11T10:19:24.639Z,12.60
2023-01-11T10:21:50.969Z,8.02
2023-01-11T10:24:22.204Z,8.48
2023-01-11T10:26:50.582Z,10.35
2023-01-11T10:29:36.766Z,10.10
2023-01-11T10:32:04.262Z,10.63
2023-01-11T10:34:38.351Z,6.13
2023-01-11T10:37:08.660Z,4.93
2023-01-11T10:39:39.607Z,5.85
2023-01-11T10:42:23.208Z,6.10
2023-01-11T10:44:55.723Z,7.20
2023-01-11T10:49:50.514Z,9.20
2023-01-11T10:52:22.691Z,4.55
2023-01-11T10:54:50.384Z,6.22
2023-01-11T10:57:36.926Z,7.13
2023-01-11T11:00:18.733Z,7.70
2023-01-11T11:02:46.983Z,7.50
2023-01-11T11:05:20.568Z,7.45
2023-01-11T11:08:06.486Z,6.07
2023-01-11T11:10:43.076Z,10.18
2023-01-11T11:13:23.485Z,9.80
2023-01-11T11:15:59.779Z,5.35
2023-01-11T11:18:27.428Z,5.32
2023-01-11T11:21:00.490Z,7.40
2023-01-11T11:23:28.332Z,5.40
2023-01-11T11:25:57.318Z,8.23
2023-01-11T11:28:26.615Z,6.97
2023-01-11T11:30:55.702Z,8.13
2023-01-11T11:33:31.688Z,8.15
2023-01-11T11:36:01.078Z,3.40
2023-01-11T11:38:30.360Z,5.00
2023-01-11T11:41:04.064Z,4.43
2023-01-11T11:43:32.449Z,4.32
2023-01-11T11:46:23.094Z,5.65
2023-01-11T11:49:08.882Z,6.72
2023-01-11T11:51:36.778Z,7.30
2023-01-11T11:54:04.250Z,3.38
2023-01-11T11:56:35.225Z,4.50
2023-01-11T11:59:07.082Z,5.95
2023-01-11T12:04:03.893Z,8.68
2023-01-11T12:06:31.516Z,6.07
2023-01-11T12:09:00.686Z,3.47
2023-01-11T12:11:32.805Z,2.35
2023-01-11T12:14:16.903Z,4.43
2023-01-11T12:16:45.418Z,3.83
2023-01-11T12:19:24.822Z,6.15
2023-01-11T12:21:52.680Z,2.72
2023-01-11T12:24:20.146Z,5.32
2023-01-11T12:27:06.499Z,3.22
2023-01-11T12:29:33.904Z,2.70
2023-01-11T12:32:07.700Z,4.65
2023-01-11T12:34:41.099Z,5.20
2023-01-11T12:37:08.719Z,7.10
2023-01-11T12:40:08.269Z,4.55
2023-01-11T12:42:35.935Z,5.85
2023-01-11T12:45:09.342Z,4.00
2023-01-11T12:47:49.294Z,4.03
2023-01-11T12:50:21.050Z,3.30
2023-01-11T12:53:07.753Z,3.50
2023-01-11T12:55:35.129Z,5.60
2023-01-11T12:58:08.767Z,4.85
2023-01-11T13:00:54.502Z,3.85
2023-01-11T13:03:25.184Z,2.50
2023-01-11T13:05:59.024Z,4.80
2023-01-11T13:08:26.606Z,4.93
2023-01-11T13:10:56.704Z,3.47
2023-01-11T13:13:33.416Z,4.53
2023-01-11T13:16:02.821Z,6.13
2023-01-11T13:18:42.478Z,3.30
2023-01-11T13:21:16.594Z,4.38
2023-01-11T13:23:52.241Z,5.72
2023-01-11T13:26:27.948Z,4.65
2023-01-11T13:29:14.481Z,4.35
2023-01-11T13:31:42.543Z,4.03
2023-01-11T13:34:22.685Z,5.75
2023-01-11T13:36:55.617Z,5.75
2023-01-11T13:39:28.752Z,4.18
2023-01-11T13:41:57.947Z,5.22
2023-01-11T13:44:30.327Z,7.55
2023-01-11T13:47:20.729Z,6.38
2023-01-11T13:49:48.387Z,2.90
2023-01-11T13:52:17.942Z,3.80
2023-01-11T13:54:50.431Z,6.60
2023-01-11T13:57:43.741Z,6.25
2023-01-11T14:00:26.515Z,7.28
2023-01-11T14:03:03.268Z,8.55
2023-01-11T14:05:39.793Z,4.07
2023-01-11T14:08:07.168Z,4.97
2023-01-11T14:10:51.891Z,5.40
2023-01-11T14:13:37.698Z,4.05
2023-01-11T14:16:10.940Z,2.95
2023-01-11T14:19:01.320Z,6.40
2023-01-11T14:21:39.576Z,6.00
2023-01-11T14:24:07.518Z,4.45
2023-01-11T14:26:53.204Z,6.38
2023-01-11T14:29:29.547Z,6.97
2023-01-11T14:32:13.605Z,4.88
2023-01-11T14:34:57.942Z,8.02
2023-01-11T14:37:25.553Z,7.80
2023-01-11T14:40:11.585Z,5.63
2023-01-11T14:42:57.995Z,7.80
2023-01-11T14:45:43.463Z,6.85
2023-01-11T14:48:29.567Z,7.20
2023-01-11T14:51:15.396Z,7.32
2023-01-11T14:53:47.176Z,9.52
2023-01-11T14:56:33.099Z,5.43
2023-01-11T14:59:01.969Z,8.43
2023-01-11T15:01:29.367Z,7.85
2023-01-11T15:03:57.105Z,8.02
2023-01-11T15:06:24.465Z,12.82
2023-01-11T15:08:54.063Z,7.90
2023-01-11T15:11:23.273Z,10.23
2023-01-11T15:13:56.672Z,10.82
2023-01-11T15:16:26.643Z,9.45
2023-01-11T15:18:54.875Z,6.03
2023-01-11T15:21:23.985Z,4.95
2023-01-11T15:23:56.476Z,7.05
2023-01-11T15:26:24.807Z,6.68
2023-01-11T15:29:02.246Z,10.63
2023-01-11T15:31:34.028Z,9.60
2023-01-11T15:36:51.911Z,8.65
2023-01-11T15:39:23.071Z,9.55
2023-01-11T15:42:13.268Z,19.52
2023-01-11T15:44:59.475Z,19.58
2023-01-11T15:47:35.711Z,22.27
2023-01-11T15:50:27.612Z,17.08
2023-01-11T15:53:03.908Z,17.83
2023-01-11T15:55:31.635Z,12.48
2023-01-11T15:57:58.980Z,20.55
2023-01-11T16:00:45.268Z,15.18
2023-01-11T16:03:21.801Z,11.70
2023-01-11T16:06:12.427Z,10.40
2023-01-11T16:08:53.120Z,7.47
2023-01-11T16:11:30.965Z,8.48
2023-01-11T16:13:58.324Z,8.43
2023-01-11T16:16:44.552Z,8.05
2023-01-11T16:19:22.075Z,6.68
2023-01-11T16:21:54.198Z,6.00
2023-01-11T16:24:24.001Z,8.52
2023-01-11T16:27:01.196Z,6.93
2023-01-11T16:29:32.529Z,7.18
2023-01-11T16:32:01.902Z,6.88
2023-01-11T16:34:30.485Z,7.78
2023-01-11T16:36:58.064Z,7.43
2023-01-11T16:39:27.203Z,7.68
2023-01-11T16:41:57.566Z,6.07
2023-01-11T16:44:33.753Z,6.85
2023-01-11T16:47:04.178Z,10.57
2023-01-11T16:49:31.541Z,13.60
2023-01-11T16:51:59.174Z,5.82
2023-01-11T16:54:28.500Z,11.40
2023-01-11T16:56:57.113Z,14.55
2023-01-11T16:59:30.510Z,15.82
2023-01-11T17:01:59.540Z,16.73
2023-01-11T17:04:28.579Z,19.00
2023-01-11T17:06:56.850Z,7.13
2023-01-11T17:09:24.298Z,9.00
2023-01-11T17:11:52.057Z,10.23
2023-01-11T17:14:26.679Z,6.95
2023-01-11T17:16:59.965Z,7.47
2023-01-11T17:19:29.872Z,7.60
2023-01-11T17:22:01.485Z,8.05
2023-01-11T17:24:29.430Z,8.63
2023-01-11T17:26:58.765Z,4.63
2023-01-11T17:29:38.121Z,7.28
2023-01-11T17:32:11.773Z,5.88
2023-01-11T17:34:39.160Z,7.40
2023-01-11T17:37:08.156Z,5.53
2023-01-11T17:39:36.833Z,5.88
2023-01-11T17:42:08.249Z,5.78
2023-01-11T17:44:39.711Z,8.93
2023-01-11T17:47:11.401Z,7.85
2023-01-11T17:49:39.359Z,9.37
2023-01-11T17:52:34.330Z,8.80
2023-01-11T17:55:01.703Z,8.35
2023-01-11T17:57:30.513Z,5.93
2023-01-11T18:00:16.411Z,12.23
2023-01-11T18:02:45.190Z,7.63
2023-01-11T18:05:17.521Z,7.18
2023-01-11T18:11:21.877Z,6.13
2023-01-11T18:13:53.462Z,8.10
2023-01-11T18:16:21.828Z,5.88
2023-01-11T18:18:52.655Z,6.30
2023-01-11T18:21:26.035Z,7.47
2023-01-11T18:24:09.129Z,7.38
2023-01-11T18:26:39.870Z,8.88
2023-01-11T18:29:20.595Z,9.63
2023-01-11T18:31:51.285Z,7.72
2023-01-11T18:34:19.233Z,6.68
2023-01-11T18:36:46.753Z,7.15
2023-01-11T18:39:14.493Z,7.15
2023-01-11T18:41:44.532Z,6.95
2023-01-11T18:44:12.663Z,7.82
2023-01-11T18:46:40.189Z,9.38
2023-01-11T18:49:07.986Z,10.00
2023-01-11T18:51:36.545Z,24.20
2023-01-11T18:54:04.620Z,10.38
2023-01-11T18:56:32.158Z,10.70
2023-01-11T18:58:59.909Z,11.18
2023-01-11T19:01:27.463Z,8.85
2023-01-11T19:03:55.221Z,8.15
2023-01-11T19:06:22.585Z,10.20
2023-01-11T19:08:50.182Z,8.40
2023-01-11T19:11:17.659Z,9.52
2023-01-11T19:13:46.809Z,8.85
2023-01-11T19:16:17.835Z,10.00
2023-01-11T19:18:45.646Z,9.20
2023-01-11T19:21:13.066Z,10.07
2023-01-11T19:23:41.307Z,14.15
2023-01-11T19:26:08.796Z,10.35
2023-01-11T19:28:36.775Z,9.43
2023-01-11T19:31:08.282Z,9.40
2023-01-11T19:33:35.926Z,9.05
2023-01-11T19:36:06.866Z,10.05
2023-01-11T19:38:34.527Z,10.68
2023-01-11T19:41:06.185Z,16.45
2023-01-11T19:43:37.499Z,8.43
2023-01-11T19:46:05.204Z,12.57
2023-01-11T19:48:33.220Z,11.10
2023-01-11T19:51:04.989Z,11.52
2023-01-11T19:53:37.300Z,11.77
2023-01-11T19:56:06.131Z,10.13
2023-01-11T19:58:36.073Z,10.45
2023-01-11T20:01:10.723Z,12.02
2023-01-11T20:03:38.676Z,11.77
2023-01-11T20:06:06.702Z,13.50
2023-01-11T20:08:35.577Z,13.02
2023-01-11T20:11:07.243Z,9.50
2023-01-11T20:13:35.296Z,8.35
2023-01-11T20:16:06.832Z,9.60
2023-01-11T20:18:34.546Z,11.55
2023-01-11T20:21:02.398Z,9.38
2023-01-11T20:23:31.127Z,11.18
2023-01-11T20:25:59.114Z,12.40
2023-01-11T20:28:27.344Z,9.50
2023-01-11T20:30:55.190Z,15.20
2023-01-11T20:33:23.121Z,14.02
2023-01-11T20:35:50.753Z,16.20
2023-01-11T20:38:19.261Z,13.75
2023-01-11T20:40:49.919Z,11.60
2023-01-11T20:43:17.762Z,9.98
2023-01-11T20:45:54.722Z,11.48
2023-01-11T20:48:22.678Z,17.98
2023-01-11T20:50:50.079Z,8.40
2023-01-11T20:53:18.018Z,10.40
2023-01-11T20:55:45.673Z,10.18
2023-01-11T20:58:13.536Z,11.00
2023-01-11T21:00:41.046Z,8.68
2023-01-11T21:03:08.928Z,11.13
2023-01-11T21:05:39.283Z,9.30
2023-01-11T21:08:06.941Z,9.27
2023-01-11T21:10:34.460Z,10.52
2023-01-11T21:13:02.265Z,10.45
2023-01-11T21:15:29.782Z,12.02
2023-01-11T21:17:57.739Z,11.73
2023-01-11T21:20:25.261Z,9.70
2023-01-11T21:22:52.964Z,13.10
2023-01-11T21:25:20.518Z,11.65
2023-01-11T21:27:48.686Z,10.75
2023-01-11T21:30:16.220Z,11.77
2023-01-11T21:32:43.935Z,10.00
2023-01-11T21:35:11.256Z,10.70
2023-01-11T21:37:39.419Z,11.02
2023-01-11T21:40:07.132Z,9.20
2023-01-11T21:42:34.829Z,10.48
2023-01-11T21:45:02.196Z,8.43
2023-01-11T21:47:30.595Z,8.75
2023-01-11T21:49:58.562Z,9.95
2023-01-11T21:52:29.302Z,9.98
2023-01-11T21:54:56.627Z,10.82
2023-01-11T21:57:24.267Z,9.32
2023-01-11T21:59:51.811Z,10.57
2023-01-11T22:02:19.762Z,10.40
2023-01-11T22:05:01.940Z,10.90
2023-01-11T22:10:04.928Z,10.85
2023-01-11T22:13:14.427Z,9.40
2023-01-11T22:15:44.859Z,9.40
2023-01-11T22:18:13.878Z,9.85
2023-01-11T22:20:41.430Z,10.77
2023-01-11T22:23:09.048Z,10.90
2023-01-11T22:25:36.456Z,9.82
2023-01-11T22:28:04.150Z,11.65
2023-01-11T22:30:31.449Z,10.57
2023-01-11T22:33:18.231Z,15.02
2023-01-11T22:35:53.687Z,13.35
2023-01-11T22:38:21.362Z,14.23
2023-01-11T22:40:48.686Z,11.75
2023-01-11T22:43:16.317Z,13.10
2023-01-11T22:45:43.725Z,15.40
2023-01-11T22:48:11.374Z,17.50
2023-01-11T22:50:38.748Z,14.10
2023-01-11T22:53:06.470Z,14.75
2023-01-11T22:55:33.792Z,15.50
2023-01-11T22:58:01.543Z,15.15
2023-01-11T23:00:28.822Z,12.90
2023-01-11T23:02:56.728Z,16.95
2023-01-11T23:05:24.195Z,16.15
2023-01-11T23:07:54.491Z,11.60
2023-01-11T23:10:21.832Z,11.80
2023-01-11T23:12:49.514Z,14.98
2023-01-11T23:15:16.959Z,11.57
2023-01-11T23:17:46.299Z,17.77
2023-01-11T23:20:13.913Z,13.68
2023-01-11T23:22:41.556Z,11.23
2023-01-11T23:25:09.282Z,11.82
2023-01-11T23:27:36.958Z,11.52
2023-01-11T23:30:04.512Z,11.55
2023-01-11T23:32:33.134Z,11.10
2023-01-11T23:35:02.838Z,11.45
2023-01-11T23:37:35.673Z,12.88
2023-01-11T23:40:03.044Z,10.73
2023-01-11T23:42:30.768Z,10.73
2023-01-11T23:44:58.119Z,12.95
2023-01-11T23:47:25.836Z,12.85
2023-01-11T23:49:54.246Z,9.65
2023-01-11T23:52:31.644Z,10.63
2023-01-11T23:54:59.383Z,8.82
2023-01-11T23:57:27.209Z,8.63
2023-01-11T23:59:54.650Z,11.20
